createdAt,value
2018-01-16T00:01:35.735Z,74.17
2018-01-16T00:06:35.687Z,74.17
2018-01-16T00:11:35.595Z,74.27
2018-01-16T00:16:35.538Z,74.08
2018-01-16T00:21:35.526Z,74.23
2018-01-16T00:26:35.401Z,74.33
2018-01-16T00:31:35.333Z,73.94
2018-01-16T00:36:35.358Z,73.94
2018-01-16T00:41:35.193Z,74.33
2018-01-16T00:46:35.117Z,74.13
2018-01-16T00:51:35.053Z,74.33
2018-01-16T00:56:35.026Z,74.33
2018-01-16T01:01:34.922Z,74.19
2018-01-16T01:06:34.834Z,74.39
2018-01-16T01:11:34.764Z,74.29
2018-01-16T01:16:34.698Z,74.39
2018-01-16T01:21:34.624Z,74.1
2018-01-16T01:26:34.581Z,74.19
2018-01-16T01:31:34.534Z,74.29
2018-01-16T01:36:34.423Z,74.1
2018-01-16T01:41:34.366Z,74.29
2018-01-16T01:46:34.279Z,74.1
2018-01-16T01:51:34.246Z,74.16
2018-01-16T01:56:34.132Z,74.39
2018-01-16T02:01:34.140Z,74.29
2018-01-16T02:06:33.976Z,74.26
2018-01-16T02:11:33.908Z,74.39
2018-01-16T02:16:33.836Z,74.35
2018-01-16T02:21:33.759Z,74.06
2018-01-16T02:26:33.689Z,73.97
2018-01-16T02:31:33.687Z,74.06
2018-01-16T02:36:33.546Z,74.26
2018-01-16T02:41:33.458Z,74.06
2018-01-16T02:46:33.386Z,73.68
2018-01-16T02:51:33.306Z,73.49
2018-01-16T02:56:33.224Z,73.49
2018-01-16T03:01:33.159Z,73.39
2018-01-16T03:06:33.117Z,73.2
2018-01-16T03:11:33.004Z,73.39
2018-01-16T03:16:32.905Z,73.49
2018-01-16T03:21:32.839Z,73.68
2018-01-16T03:26:32.770Z,73.77
2018-01-16T03:31:32.675Z,73.83
2018-01-16T03:36:32.615Z,73.77
2018-01-16T03:41:32.521Z,73.49
2018-01-16T03:46:32.473Z,73.74
2018-01-16T03:51:32.369Z,73.55
2018-01-16T03:56:32.284Z,73.74
2018-01-16T04:01:32.215Z,73.65
2018-01-16T04:06:32.113Z,73.55
2018-01-16T04:11:32.031Z,74.02
2018-01-16T04:16:31.960Z,73.93
2018-01-16T04:21:31.900Z,74.22
2018-01-16T04:26:31.807Z,73.93
2018-01-16T04:31:31.709Z,73.83
2018-01-16T04:36:31.639Z,74.31
2018-01-16T04:41:31.550Z,74.22
2018-01-16T04:46:31.486Z,74.12
2018-01-16T04:51:31.416Z,74.02
2018-01-16T04:56:31.304Z,74.22
2018-01-16T05:01:31.228Z,74.22
2018-01-16T05:06:31.153Z,74.51
2018-01-16T05:11:31.071Z,74.79
2018-01-16T05:16:30.992Z,74.98
2018-01-16T05:21:30.916Z,74.12
2018-01-16T05:26:30.862Z,74.02
2018-01-16T05:31:30.763Z,74.16
2018-01-16T05:36:30.679Z,73.97
2018-01-16T05:41:30.611Z,73.49
2018-01-16T05:46:30.606Z,73.3
2018-01-16T05:51:30.451Z,73.2
2018-01-16T05:56:30.392Z,72.95
2018-01-16T06:01:30.432Z,72.66
2018-01-16T06:06:30.232Z,72.85
2018-01-16T06:11:30.164Z,73.04
2018-01-16T06:16:30.098Z,73.27
2018-01-16T06:21:30.024Z,72.99
2018-01-16T06:26:29.956Z,72.5
2018-01-16T06:31:29.885Z,72.31
2018-01-16T06:36:29.816Z,72.79
2018-01-16T06:41:29.737Z,72.22
2018-01-16T06:46:29.721Z,72.5
2018-01-16T06:51:29.607Z,72.12
2018-01-16T06:56:29.563Z,72.79
2018-01-16T07:01:29.472Z,72.31
2018-01-16T07:06:29.424Z,71.93
2018-01-16T07:11:29.317Z,72.06
2018-01-16T07:16:29.252Z,72.16
2018-01-16T07:21:29.186Z,72.64
2018-01-16T07:26:29.107Z,72.22
2018-01-16T07:31:29.043Z,72.22
2018-01-16T07:36:28.983Z,72.12
2018-01-16T07:41:28.903Z,72.12
2018-01-16T07:46:28.845Z,71.93
2018-01-16T07:51:28.755Z,72.41
2018-01-16T07:56:28.697Z,72.22
2018-01-16T08:01:28.658Z,71.93
2018-01-16T08:06:28.533Z,71.45
2018-01-16T08:11:28.483Z,71.93
2018-01-16T08:16:28.394Z,71.83
2018-01-16T08:21:28.334Z,71.93
2018-01-16T08:26:28.260Z,71.25
2018-01-16T08:31:28.207Z,71.64
2018-01-16T08:36:28.111Z,72.02
2018-01-16T08:41:28.036Z,72.12
2018-01-16T08:46:27.971Z,71.64
2018-01-16T08:51:27.902Z,71.64
2018-01-16T08:56:27.820Z,72.12
2018-01-16T09:01:27.756Z,72.5
2018-01-16T09:06:27.685Z,72.79
2018-01-16T09:11:27.613Z,73.37
2018-01-16T09:16:27.544Z,72.31
2018-01-16T09:21:27.479Z,72.08
2018-01-16T09:26:27.394Z,71.12
2018-01-16T09:31:27.334Z,72.28
2018-01-16T09:36:27.303Z,71.98
2018-01-16T09:41:27.258Z,71.16
2018-01-16T09:46:27.112Z,71.06
2018-01-16T09:51:27.032Z,71.51
2018-01-16T09:56:26.962Z,71.22
2018-01-16T10:01:26.890Z,71.61
2018-01-16T10:06:26.888Z,71.61
2018-01-16T10:11:26.768Z,71.16
2018-01-16T10:16:26.678Z,71.35
2018-01-16T10:21:26.604Z,71.93
2018-01-16T10:26:26.533Z,71.98
2018-01-16T10:31:26.463Z,71.8
2018-01-16T10:36:26.390Z,71.93
2018-01-16T10:41:26.420Z,72.12
2018-01-16T10:46:26.246Z,71.25
2018-01-16T10:51:26.173Z,71.35
2018-01-16T10:56:26.148Z,70.78
2018-01-16T11:01:26.038Z,70.39
2018-01-16T11:06:25.959Z,70.68
2018-01-16T11:11:25.882Z,70.58
2018-01-16T11:16:25.810Z,71.06
2018-01-16T11:21:25.806Z,70.49
2018-01-16T11:26:25.677Z,70.68
2018-01-16T11:31:25.603Z,70.33
2018-01-16T11:36:25.579Z,70.62
2018-01-16T11:41:25.456Z,70.9
2018-01-16T11:46:25.395Z,70.43
2018-01-16T11:51:25.312Z,70.49
2018-01-16T11:56:25.240Z,70.49
2018-01-16T12:01:25.166Z,71.35
2018-01-16T12:06:25.138Z,71.45
2018-01-16T12:11:25.037Z,68.89
2018-01-16T12:16:24.976Z,66.74
2018-01-16T12:21:24.971Z,69.54
2018-01-16T12:26:24.825Z,69.12
2018-01-16T12:31:24.750Z,70.78
2018-01-16T12:36:24.677Z,71.1
2018-01-16T12:41:24.643Z,71.67
2018-01-16T12:46:24.546Z,71.67
2018-01-16T12:51:24.596Z,72.12
2018-01-16T12:56:24.407Z,71.55
2018-01-16T13:01:24.331Z,71.48
2018-01-16T13:06:24.337Z,70.81
2018-01-16T13:11:24.195Z,71.1
2018-01-16T13:16:24.135Z,70.87
2018-01-16T13:21:24.051Z,70.39
2018-01-16T13:26:24.009Z,70.68
2018-01-16T13:31:23.914Z,71.16
2018-01-16T13:36:23.849Z,71.06
2018-01-16T13:41:23.764Z,70.68
2018-01-16T13:46:23.704Z,70.29
2018-01-16T13:51:23.637Z,70.39
2018-01-16T13:56:23.556Z,69.62
2018-01-16T14:01:23.484Z,70.1
2018-01-16T14:06:23.429Z,69.53
2018-01-16T14:11:23.348Z,69.87
2018-01-16T14:16:23.281Z,70.1
2018-01-16T14:21:23.208Z,69.05
2018-01-16T14:26:23.212Z,69.72
2018-01-16T14:31:23.138Z,69.62
2018-01-16T14:36:23.011Z,69.43
2018-01-16T14:41:22.920Z,69.53
2018-01-16T14:46:22.839Z,68.82
2018-01-16T14:51:22.829Z,69.49
2018-01-16T14:56:22.747Z,71.06
2018-01-16T15:01:22.708Z,70.78
2018-01-16T15:06:22.572Z,71.16
2018-01-16T15:11:22.488Z,71.35
2018-01-16T15:16:22.436Z,71.93
2018-01-16T15:21:22.353Z,72.12
2018-01-16T15:26:22.289Z,72.02
2018-01-16T15:31:22.200Z,72.31
2018-01-16T15:36:22.184Z,71.93
2018-01-16T15:41:22.079Z,72.22
2018-01-16T15:46:22.003Z,72.69
2018-01-16T15:51:21.952Z,72.22
2018-01-16T15:56:21.868Z,71.16
2018-01-16T16:01:21.783Z,70.58
2018-01-16T16:06:21.460Z,70.68
2018-01-16T16:11:21.653Z,70.87
2018-01-16T16:16:21.571Z,70.49
2018-01-16T16:21:21.507Z,70.97
2018-01-16T16:26:21.441Z,72.12
2018-01-16T16:31:21.369Z,72.64
2018-01-16T16:36:21.309Z,72.22
2018-01-16T16:41:21.255Z,72.25
2018-01-16T16:46:21.161Z,71.67
2018-01-16T16:51:21.097Z,72.06
